sensor_id;sensor_type;location;lat;lon;timestamp;P1;durP1;ratioP1;P2;durP2;ratioP2
58372;SDS011;44177;43.356;27.672;2023-05-14T00:00:59;5.93;;;4.78;;
58372;SDS011;44177;43.356;27.672;2023-05-14T00:03:24;5.72;;;4.72;;
58372;SDS011;44177;43.356;27.672;2023-05-14T00:05:50;4.55;;;3.85;;
58372;SDS011;44177;43.356;27.672;2023-05-14T00:08:16;4.75;;;3.75;;
58372;SDS011;44177;43.356;27.672;2023-05-14T00:10:41;7.18;;;4.03;;
58372;SDS011;44177;43.356;27.672;2023-05-14T00:13:07;4.25;;;3.85;;
58372;SDS011;44177;43.356;27.672;2023-05-14T00:15:32;4.57;;;4.18;;
58372;SDS011;44177;43.356;27.672;2023-05-14T00:17:58;6.28;;;4.03;;
58372;SDS011;44177;43.356;27.672;2023-05-14T00:20:23;5.88;;;4.07;;
58372;SDS011;44177;43.356;27.672;2023-05-14T00:22:48;4.72;;;4.05;;
58372;SDS011;44177;43.356;27.672;2023-05-14T00:25:14;4.60;;;4.20;;
58372;SDS011;44177;43.356;27.672;2023-05-14T00:27:39;5.75;;;4.18;;
58372;SDS011;44177;43.356;27.672;2023-05-14T00:30:05;6.07;;;4.07;;
58372;SDS011;44177;43.356;27.672;2023-05-14T00:32:31;7.53;;;4.65;;
58372;SDS011;44177;43.356;27.672;2023-05-14T00:34:57;6.47;;;4.43;;
58372;SDS011;44177;43.356;27.672;2023-05-14T00:37:22;5.40;;;4.78;;
58372;SDS011;44177;43.356;27.672;2023-05-14T00:39:48;5.15;;;4.43;;
58372;SDS011;44177;43.356;27.672;2023-05-14T00:42:13;5.40;;;4.30;;
58372;SDS011;44177;43.356;27.672;2023-05-14T00:44:39;5.95;;;4.47;;
58372;SDS011;44177;43.356;27.672;2023-05-14T00:47:04;6.88;;;5.43;;
58372;SDS011;44177;43.356;27.672;2023-05-14T00:49:30;6.90;;;4.63;;
58372;SDS011;44177;43.356;27.672;2023-05-14T00:51:56;8.32;;;5.05;;
58372;SDS011;44177;43.356;27.672;2023-05-14T00:54:23;10.27;;;5.93;;
58372;SDS011;44177;43.356;27.672;2023-05-14T00:56:48;6.60;;;5.38;;
58372;SDS011;44177;43.356;27.672;2023-05-14T00:59:14;6.28;;;4.93;;
58372;SDS011;44177;43.356;27.672;2023-05-14T01:01:40;6.80;;;5.70;;
58372;SDS011;44177;43.356;27.672;2023-05-14T01:04:06;6.05;;;5.30;;
58372;SDS011;44177;43.356;27.672;2023-05-14T01:06:39;7.13;;;5.72;;
58372;SDS011;44177;43.356;27.672;2023-05-14T01:18:08;6.80;;;5.28;;
58372;SDS011;44177;43.356;27.672;2023-05-14T01:20:34;5.32;;;4.55;;
58372;SDS011;44177;43.356;27.672;2023-05-14T01:23:00;7.80;;;4.57;;
58372;SDS011;44177;43.356;27.672;2023-05-14T01:25:27;6.43;;;4.82;;
58372;SDS011;44177;43.356;27.672;2023-05-14T01:30:31;6.57;;;5.25;;
58372;SDS011;44177;43.356;27.672;2023-05-14T01:33:01;7.95;;;4.50;;
58372;SDS011;44177;43.356;27.672;2023-05-14T01:35:30;7.45;;;4.38;;
58372;SDS011;44177;43.356;27.672;2023-05-14T01:37:57;6.93;;;4.47;;
58372;SDS011;44177;43.356;27.672;2023-05-14T01:40:25;6.32;;;4.72;;
58372;SDS011;44177;43.356;27.672;2023-05-14T01:42:51;6.03;;;4.85;;
58372;SDS011;44177;43.356;27.672;2023-05-14T01:45:21;5.80;;;4.28;;
58372;SDS011;44177;43.356;27.672;2023-05-14T01:47:47;5.10;;;4.60;;
58372;SDS011;44177;43.356;27.672;2023-05-14T01:50:13;5.65;;;4.60;;
58372;SDS011;44177;43.356;27.672;2023-05-14T01:52:39;6.25;;;4.60;;
58372;SDS011;44177;43.356;27.672;2023-05-14T01:55:04;4.40;;;3.97;;
58372;SDS011;44177;43.356;27.672;2023-05-14T01:57:30;5.72;;;4.50;;
58372;SDS011;44177;43.356;27.672;2023-05-14T01:59:56;6.32;;;4.15;;
58372;SDS011;44177;43.356;27.672;2023-05-14T02:02:21;6.63;;;4.72;;
58372;SDS011;44177;43.356;27.672;2023-05-14T02:04:47;4.45;;;3.90;;
58372;SDS011;44177;43.356;27.672;2023-05-14T02:07:13;5.30;;;3.90;;
58372;SDS011;44177;43.356;27.672;2023-05-14T02:09:38;7.10;;;3.65;;
58372;SDS011;44177;43.356;27.672;2023-05-14T02:12:05;5.03;;;4.53;;
58372;SDS011;44177;43.356;27.672;2023-05-14T02:14:31;4.32;;;3.92;;
58372;SDS011;44177;43.356;27.672;2023-05-14T02:16:57;5.75;;;4.03;;
58372;SDS011;44177;43.356;27.672;2023-05-14T02:19:22;5.25;;;4.75;;
58372;SDS011;44177;43.356;27.672;2023-05-14T02:21:48;4.95;;;4.20;;
58372;SDS011;44177;43.356;27.672;2023-05-14T02:24:14;5.72;;;4.47;;
58372;SDS011;44177;43.356;27.672;2023-05-14T02:26:39;4.78;;;4.28;;
58372;SDS011;44177;43.356;27.672;2023-05-14T02:29:06;5.18;;;4.22;;
58372;SDS011;44177;43.356;27.672;2023-05-14T02:31:32;5.93;;;4.72;;
58372;SDS011;44177;43.356;27.672;2023-05-14T02:34:00;6.18;;;4.38;;
58372;SDS011;44177;43.356;27.672;2023-05-14T02:36:26;4.65;;;4.20;;
58372;SDS011;44177;43.356;27.672;2023-05-14T02:38:51;5.53;;;3.78;;
58372;SDS011;44177;43.356;27.672;2023-05-14T02:41:17;5.22;;;4.28;;
58372;SDS011;44177;43.356;27.672;2023-05-14T02:43:42;5.70;;;4.55;;
58372;SDS011;44177;43.356;27.672;2023-05-14T02:46:07;6.38;;;4.90;;
58372;SDS011;44177;43.356;27.672;2023-05-14T02:48:33;5.50;;;4.60;;
58372;SDS011;44177;43.356;27.672;2023-05-14T02:50:58;5.40;;;4.90;;
58372;SDS011;44177;43.356;27.672;2023-05-14T02:53:24;5.90;;;4.63;;
58372;SDS011;44177;43.356;27.672;2023-05-14T02:55:50;7.03;;;4.47;;
58372;SDS011;44177;43.356;27.672;2023-05-14T02:58:15;6.25;;;4.68;;
58372;SDS011;44177;43.356;27.672;2023-05-14T03:00:41;6.55;;;5.22;;
58372;SDS011;44177;43.356;27.672;2023-05-14T03:03:06;7.05;;;4.65;;
58372;SDS011;44177;43.356;27.672;2023-05-14T03:05:31;6.55;;;4.85;;
58372;SDS011;44177;43.356;27.672;2023-05-14T03:07:57;6.32;;;5.13;;
58372;SDS011;44177;43.356;27.672;2023-05-14T03:10:22;7.80;;;5.80;;
58372;SDS011;44177;43.356;27.672;2023-05-14T03:12:48;5.97;;;4.53;;
58372;SDS011;44177;43.356;27.672;2023-05-14T03:15:13;10.35;;;6.13;;
58372;SDS011;44177;43.356;27.672;2023-05-14T03:17:39;7.47;;;5.78;;
58372;SDS011;44177;43.356;27.672;2023-05-14T03:20:05;8.23;;;5.53;;
58372;SDS011;44177;43.356;27.672;2023-05-14T03:22:30;6.18;;;4.97;;
58372;SDS011;44177;43.356;27.672;2023-05-14T03:24:56;5.57;;;5.00;;
58372;SDS011;44177;43.356;27.672;2023-05-14T03:27:22;5.25;;;4.50;;
58372;SDS011;44177;43.356;27.672;2023-05-14T03:29:47;6.25;;;4.82;;
58372;SDS011;44177;43.356;27.672;2023-05-14T03:32:13;5.82;;;5.22;;
58372;SDS011;44177;43.356;27.672;2023-05-14T03:34:38;11.25;;;5.60;;
58372;SDS011;44177;43.356;27.672;2023-05-14T03:37:04;6.93;;;5.60;;
58372;SDS011;44177;43.356;27.672;2023-05-14T03:39:30;6.20;;;5.60;;
58372;SDS011;44177;43.356;27.672;2023-05-14T03:41:55;6.50;;;5.32;;
58372;SDS011;44177;43.356;27.672;2023-05-14T03:44:23;8.77;;;5.40;;
58372;SDS011;44177;43.356;27.672;2023-05-14T03:46:49;8.02;;;5.45;;
58372;SDS011;44177;43.356;27.672;2023-05-14T03:49:14;10.07;;;5.47;;
58372;SDS011;44177;43.356;27.672;2023-05-14T03:51:40;12.32;;;7.35;;
58372;SDS011;44177;43.356;27.672;2023-05-14T03:54:05;16.70;;;8.68;;
58372;SDS011;44177;43.356;27.672;2023-05-14T03:56:31;13.30;;;7.75;;
58372;SDS011;44177;43.356;27.672;2023-05-14T03:58:57;9.90;;;6.47;;
58372;SDS011;44177;43.356;27.672;2023-05-14T04:01:22;12.90;;;7.35;;
58372;SDS011;44177;43.356;27.672;2023-05-14T04:03:48;13.73;;;6.35;;
58372;SDS011;44177;43.356;27.672;2023-05-14T04:06:13;9.20;;;5.97;;
58372;SDS011;44177;43.356;27.672;2023-05-14T04:08:38;8.60;;;5.63;;
58372;SDS011;44177;43.356;27.672;2023-05-14T04:11:04;9.00;;;5.95;;
58372;SDS011;44177;43.356;27.672;2023-05-14T04:13:29;13.70;;;7.20;;
58372;SDS011;44177;43.356;27.672;2023-05-14T04:15:55;23.42;;;12.20;;
58372;SDS011;44177;43.356;27.672;2023-05-14T04:18:20;18.33;;;10.52;;
58372;SDS011;44177;43.356;27.672;2023-05-14T04:20:46;12.88;;;8.20;;
58372;SDS011;44177;43.356;27.672;2023-05-14T04:23:11;13.05;;;7.25;;
58372;SDS011;44177;43.356;27.672;2023-05-14T04:25:37;10.13;;;7.30;;
58372;SDS011;44177;43.356;27.672;2023-05-14T04:28:02;7.80;;;5.50;;
58372;SDS011;44177;43.356;27.672;2023-05-14T04:30:28;7.38;;;5.53;;
58372;SDS011;44177;43.356;27.672;2023-05-14T04:32:53;8.93;;;6.70;;
58372;SDS011;44177;43.356;27.672;2023-05-14T04:35:19;7.05;;;5.43;;
58372;SDS011;44177;43.356;27.672;2023-05-14T04:37:45;7.00;;;5.00;;
58372;SDS011;44177;43.356;27.672;2023-05-14T04:40:10;7.72;;;4.25;;
58372;SDS011;44177;43.356;27.672;2023-05-14T04:42:36;7.03;;;4.03;;
58372;SDS011;44177;43.356;27.672;2023-05-14T04:45:02;6.00;;;4.00;;
58372;SDS011;44177;43.356;27.672;2023-05-14T04:47:29;5.68;;;3.65;;
58372;SDS011;44177;43.356;27.672;2023-05-14T04:49:55;6.90;;;4.03;;
58372;SDS011;44177;43.356;27.672;2023-05-14T04:52:21;5.97;;;3.90;;
58372;SDS011;44177;43.356;27.672;2023-05-14T04:54:47;4.85;;;3.45;;
58372;SDS011;44177;43.356;27.672;2023-05-14T04:57:13;5.50;;;3.85;;
58372;SDS011;44177;43.356;27.672;2023-05-14T04:59:38;6.55;;;4.05;;
58372;SDS011;44177;43.356;27.672;2023-05-14T05:02:04;6.65;;;3.50;;
58372;SDS011;44177;43.356;27.672;2023-05-14T05:04:29;5.03;;;3.63;;
58372;SDS011;44177;43.356;27.672;2023-05-14T05:06:55;6.07;;;3.55;;
58372;SDS011;44177;43.356;27.672;2023-05-14T05:09:20;6.10;;;2.60;;
58372;SDS011;44177;43.356;27.672;2023-05-14T05:11:46;6.10;;;2.38;;
58372;SDS011;44177;43.356;27.672;2023-05-14T05:14:11;4.63;;;2.80;;
58372;SDS011;44177;43.356;27.672;2023-05-14T05:16:37;3.08;;;2.30;;
58372;SDS011;44177;43.356;27.672;2023-05-14T05:19:02;3.22;;;2.10;;
58372;SDS011;44177;43.356;27.672;2023-05-14T05:21:27;2.15;;;1.90;;
58372;SDS011;44177;43.356;27.672;2023-05-14T05:23:53;3.25;;;2.03;;
58372;SDS011;44177;43.356;27.672;2023-05-14T05:26:18;4.13;;;2.40;;
58372;SDS011;44177;43.356;27.672;2023-05-14T05:28:46;7.47;;;2.00;;
58372;SDS011;44177;43.356;27.672;2023-05-14T05:31:12;3.13;;;2.30;;
58372;SDS011;44177;43.356;27.672;2023-05-14T05:33:37;4.13;;;1.80;;
58372;SDS011;44177;43.356;27.672;2023-05-14T05:36:03;3.17;;;1.75;;
58372;SDS011;44177;43.356;27.672;2023-05-14T05:38:28;3.50;;;1.90;;
58372;SDS011;44177;43.356;27.672;2023-05-14T05:40:54;6.40;;;2.00;;
58372;SDS011;44177;43.356;27.672;2023-05-14T05:43:19;3.97;;;1.70;;
58372;SDS011;44177;43.356;27.672;2023-05-14T05:45:45;1.80;;;1.60;;
58372;SDS011;44177;43.356;27.672;2023-05-14T05:48:11;3.03;;;1.42;;
58372;SDS011;44177;43.356;27.672;2023-05-14T05:50:36;3.90;;;1.80;;
58372;SDS011;44177;43.356;27.672;2023-05-14T05:53:01;2.65;;;1.88;;
58372;SDS011;44177;43.356;27.672;2023-05-14T05:55:28;1.85;;;1.70;;
58372;SDS011;44177;43.356;27.672;2023-05-14T05:57:53;2.13;;;1.70;;
58372;SDS011;44177;43.356;27.672;2023-05-14T06:00:19;2.95;;;1.60;;
58372;SDS011;44177;43.356;27.672;2023-05-14T06:02:45;4.60;;;1.50;;
58372;SDS011;44177;43.356;27.672;2023-05-14T06:05:10;2.67;;;1.83;;
58372;SDS011;44177;43.356;27.672;2023-05-14T06:07:37;2.78;;;1.85;;
58372;SDS011;44177;43.356;27.672;2023-05-14T06:10:02;4.90;;;2.22;;
58372;SDS011;44177;43.356;27.672;2023-05-14T06:12:29;2.85;;;1.95;;
58372;SDS011;44177;43.356;27.672;2023-05-14T06:14:54;3.38;;;2.00;;
58372;SDS011;44177;43.356;27.672;2023-05-14T06:17:22;3.35;;;1.90;;
58372;SDS011;44177;43.356;27.672;2023-05-14T06:19:48;2.58;;;2.00;;
58372;SDS011;44177;43.356;27.672;2023-05-14T06:22:14;2.75;;;1.90;;
58372;SDS011;44177;43.356;27.672;2023-05-14T06:24:39;4.57;;;1.90;;
58372;SDS011;44177;43.356;27.672;2023-05-14T06:27:05;2.60;;;2.08;;
58372;SDS011;44177;43.356;27.672;2023-05-14T06:29:30;3.47;;;2.10;;
58372;SDS011;44177;43.356;27.672;2023-05-14T06:31:59;4.20;;;2.10;;
58372;SDS011;44177;43.356;27.672;2023-05-14T06:34:26;4.70;;;2.30;;
58372;SDS011;44177;43.356;27.672;2023-05-14T06:36:51;4.35;;;1.98;;
58372;SDS011;44177;43.356;27.672;2023-05-14T06:39:17;3.95;;;2.28;;
58372;SDS011;44177;43.356;27.672;2023-05-14T06:41:42;3.03;;;2.05;;
58372;SDS011;44177;43.356;27.672;2023-05-14T06:44:08;4.90;;;2.53;;
58372;SDS011;44177;43.356;27.672;2023-05-14T06:46:33;3.60;;;2.50;;
58372;SDS011;44177;43.356;27.672;2023-05-14T06:48:59;5.00;;;2.30;;
58372;SDS011;44177;43.356;27.672;2023-05-14T06:51:24;4.07;;;2.30;;
58372;SDS011;44177;43.356;27.672;2023-05-14T06:53:50;8.77;;;2.78;;
58372;SDS011;44177;43.356;27.672;2023-05-14T06:56:16;3.88;;;2.25;;
58372;SDS011;44177;43.356;27.672;2023-05-14T06:58:42;3.70;;;2.55;;
58372;SDS011;44177;43.356;27.672;2023-05-14T07:01:07;3.33;;;2.45;;
58372;SDS011;44177;43.356;27.672;2023-05-14T07:03:33;3.50;;;2.58;;
58372;SDS011;44177;43.356;27.672;2023-05-14T07:05:58;4.75;;;3.05;;
58372;SDS011;44177;43.356;27.672;2023-05-14T07:08:24;5.38;;;2.45;;
58372;SDS011;44177;43.356;27.672;2023-05-14T07:10:49;4.07;;;2.72;;
58372;SDS011;44177;43.356;27.672;2023-05-14T07:13:15;3.25;;;2.58;;
58372;SDS011;44177;43.356;27.672;2023-05-14T07:15:40;4.75;;;2.80;;
58372;SDS011;44177;43.356;27.672;2023-05-14T07:18:06;5.22;;;3.28;;
58372;SDS011;44177;43.356;27.672;2023-05-14T07:20:31;5.30;;;2.85;;
58372;SDS011;44177;43.356;27.672;2023-05-14T07:22:57;8.85;;;3.30;;
58372;SDS011;44177;43.356;27.672;2023-05-14T07:25:23;8.18;;;3.60;;
58372;SDS011;44177;43.356;27.672;2023-05-14T07:27:48;6.10;;;3.55;;
58372;SDS011;44177;43.356;27.672;2023-05-14T07:30:14;5.00;;;3.47;;
58372;SDS011;44177;43.356;27.672;2023-05-14T07:32:39;7.20;;;3.58;;
58372;SDS011;44177;43.356;27.672;2023-05-14T07:35:05;8.35;;;3.63;;
58372;SDS011;44177;43.356;27.672;2023-05-14T07:37:31;4.18;;;3.50;;
58372;SDS011;44177;43.356;27.672;2023-05-14T07:39:56;7.55;;;3.40;;
58372;SDS011;44177;43.356;27.672;2023-05-14T07:42:22;10.88;;;3.30;;
58372;SDS011;44177;43.356;27.672;2023-05-14T07:44:47;4.95;;;3.28;;
58372;SDS011;44177;43.356;27.672;2023-05-14T07:47:12;4.30;;;2.70;;
58372;SDS011;44177;43.356;27.672;2023-05-14T07:49:38;5.38;;;3.47;;
58372;SDS011;44177;43.356;27.672;2023-05-14T07:52:03;5.05;;;3.10;;
58372;SDS011;44177;43.356;27.672;2023-05-14T07:54:29;4.63;;;2.70;;
58372;SDS011;44177;43.356;27.672;2023-05-14T07:56:55;4.43;;;2.50;;
58372;SDS011;44177;43.356;27.672;2023-05-14T07:59:20;2.88;;;2.20;;
58372;SDS011;44177;43.356;27.672;2023-05-14T08:01:46;4.68;;;2.53;;
58372;SDS011;44177;43.356;27.672;2023-05-14T08:04:11;3.60;;;2.72;;
58372;SDS011;44177;43.356;27.672;2023-05-14T08:06:36;9.23;;;2.95;;
58372;SDS011;44177;43.356;27.672;2023-05-14T08:09:02;4.70;;;2.20;;
58372;SDS011;44177;43.356;27.672;2023-05-14T08:11:29;4.97;;;2.60;;
58372;SDS011;44177;43.356;27.672;2023-05-14T08:13:55;4.10;;;2.83;;
58372;SDS011;44177;43.356;27.672;2023-05-14T08:16:21;2.78;;;2.22;;
58372;SDS011;44177;43.356;27.672;2023-05-14T08:18:47;3.20;;;2.45;;
58372;SDS011;44177;43.356;27.672;2023-05-14T08:21:13;3.58;;;2.40;;
58372;SDS011;44177;43.356;27.672;2023-05-14T08:23:38;5.55;;;2.40;;
58372;SDS011;44177;43.356;27.672;2023-05-14T08:26:04;5.90;;;2.20;;
58372;SDS011;44177;43.356;27.672;2023-05-14T08:28:29;4.68;;;2.08;;
58372;SDS011;44177;43.356;27.672;2023-05-14T08:30:55;2.60;;;2.00;;
58372;SDS011;44177;43.356;27.672;2023-05-14T08:33:20;2.38;;;2.05;;
58372;SDS011;44177;43.356;27.672;2023-05-14T08:35:46;2.50;;;2.10;;
58372;SDS011;44177;43.356;27.672;2023-05-14T08:38:11;4.75;;;2.38;;
58372;SDS011;44177;43.356;27.672;2023-05-14T08:40:36;4.38;;;2.20;;
58372;SDS011;44177;43.356;27.672;2023-05-14T08:43:02;4.70;;;2.30;;
58372;SDS011;44177;43.356;27.672;2023-05-14T08:45:30;5.72;;;2.17;;
58372;SDS011;44177;43.356;27.672;2023-05-14T08:47:59;8.50;;;2.50;;
58372;SDS011;44177;43.356;27.672;2023-05-14T08:50:26;6.35;;;2.50;;
58372;SDS011;44177;43.356;27.672;2023-05-14T08:52:54;3.53;;;2.17;;
58372;SDS011;44177;43.356;27.672;2023-05-14T08:55:19;4.40;;;2.55;;
58372;SDS011;44177;43.356;27.672;2023-05-14T08:57:45;6.43;;;2.22;;
58372;SDS011;44177;43.356;27.672;2023-05-14T09:00:10;3.20;;;2.13;;
58372;SDS011;44177;43.356;27.672;2023-05-14T09:02:38;2.67;;;2.30;;
58372;SDS011;44177;43.356;27.672;2023-05-14T09:05:04;2.67;;;2.20;;
58372;SDS011;44177;43.356;27.672;2023-05-14T09:07:31;4.28;;;2.35;;
58372;SDS011;44177;43.356;27.672;2023-05-14T09:09:58;4.47;;;2.20;;
58372;SDS011;44177;43.356;27.672;2023-05-14T09:12:23;3.72;;;2.72;;
58372;SDS011;44177;43.356;27.672;2023-05-14T09:14:49;3.90;;;2.22;;
58372;SDS011;44177;43.356;27.672;2023-05-14T09:17:16;5.68;;;2.30;;
58372;SDS011;44177;43.356;27.672;2023-05-14T09:19:42;3.47;;;2.33;;
58372;SDS011;44177;43.356;27.672;2023-05-14T09:22:09;2.78;;;2.20;;
58372;SDS011;44177;43.356;27.672;2023-05-14T09:24:36;5.95;;;2.30;;
58372;SDS011;44177;43.356;27.672;2023-05-14T09:27:06;5.35;;;2.80;;
58372;SDS011;44177;43.356;27.672;2023-05-14T09:29:32;4.75;;;2.30;;
58372;SDS011;44177;43.356;27.672;2023-05-14T09:31:58;4.38;;;2.30;;
58372;SDS011;44177;43.356;27.672;2023-05-14T09:34:30;2.92;;;2.40;;
58372;SDS011;44177;43.356;27.672;2023-05-14T09:36:56;5.43;;;2.45;;
58372;SDS011;44177;43.356;27.672;2023-05-14T09:39:22;4.25;;;2.22;;
58372;SDS011;44177;43.356;27.672;2023-05-14T09:41:49;4.70;;;2.40;;
58372;SDS011;44177;43.356;27.672;2023-05-14T09:44:20;5.30;;;2.38;;
58372;SDS011;44177;43.356;27.672;2023-05-14T09:46:47;2.95;;;2.65;;
58372;SDS011;44177;43.356;27.672;2023-05-14T09:49:13;5.35;;;2.67;;
58372;SDS011;44177;43.356;27.672;2023-05-14T09:51:39;4.40;;;2.20;;
58372;SDS011;44177;43.356;27.672;2023-05-14T09:54:05;4.45;;;2.70;;
58372;SDS011;44177;43.356;27.672;2023-05-14T09:56:31;4.00;;;2.30;;
58372;SDS011;44177;43.356;27.672;2023-05-14T09:58:57;5.00;;;2.80;;
58372;SDS011;44177;43.356;27.672;2023-05-14T10:01:23;4.60;;;2.35;;
58372;SDS011;44177;43.356;27.672;2023-05-14T10:03:49;6.38;;;2.13;;
58372;SDS011;44177;43.356;27.672;2023-05-14T10:06:15;6.07;;;2.42;;
58372;SDS011;44177;43.356;27.672;2023-05-14T10:08:43;2.85;;;2.60;;
58372;SDS011;44177;43.356;27.672;2023-05-14T10:11:12;4.55;;;2.30;;
58372;SDS011;44177;43.356;27.672;2023-05-14T10:13:49;4.40;;;2.50;;
58372;SDS011;44177;43.356;27.672;2023-05-14T10:16:30;2.58;;;2.38;;
58372;SDS011;44177;43.356;27.672;2023-05-14T10:19:06;4.10;;;2.28;;
58372;SDS011;44177;43.356;27.672;2023-05-14T10:21:34;3.28;;;2.25;;
58372;SDS011;44177;43.356;27.672;2023-05-14T10:24:04;6.32;;;2.60;;
58372;SDS011;44177;43.356;27.672;2023-05-14T10:26:31;4.00;;;2.92;;
58372;SDS011;44177;43.356;27.672;2023-05-14T10:28:57;6.05;;;2.30;;
58372;SDS011;44177;43.356;27.672;2023-05-14T10:32:08;3.30;;;2.30;;
58372;SDS011;44177;43.356;27.672;2023-05-14T10:37:11;3.03;;;2.30;;
58372;SDS011;44177;43.356;27.672;2023-05-14T10:39:44;3.97;;;2.40;;
58372;SDS011;44177;43.356;27.672;2023-05-14T10:42:27;3.35;;;2.60;;
58372;SDS011;44177;43.356;27.672;2023-05-14T10:45:01;3.60;;;2.47;;
58372;SDS011;44177;43.356;27.672;2023-05-14T10:47:32;3.38;;;2.85;;
58372;SDS011;44177;43.356;27.672;2023-05-14T10:50:01;5.80;;;2.70;;
58372;SDS011;44177;43.356;27.672;2023-05-14T10:52:28;5.50;;;2.65;;
58372;SDS011;44177;43.356;27.672;2023-05-14T10:54:55;5.65;;;2.67;;
58372;SDS011;44177;43.356;27.672;2023-05-14T10:57:22;2.60;;;2.33;;
58372;SDS011;44177;43.356;27.672;2023-05-14T10:59:53;4.78;;;3.03;;
58372;SDS011;44177;43.356;27.672;2023-05-14T11:02:30;4.57;;;2.80;;
58372;SDS011;44177;43.356;27.672;2023-05-14T11:05:04;5.80;;;2.60;;
58372;SDS011;44177;43.356;27.672;2023-05-14T11:07:35;4.25;;;2.33;;
58372;SDS011;44177;43.356;27.672;2023-05-14T11:10:05;6.85;;;2.67;;
58372;SDS011;44177;43.356;27.672;2023-05-14T11:12:37;4.32;;;2.85;;
58372;SDS011;44177;43.356;27.672;2023-05-14T11:15:07;4.70;;;2.58;;
58372;SDS011;44177;43.356;27.672;2023-05-14T11:17:34;5.00;;;2.95;;
58372;SDS011;44177;43.356;27.672;2023-05-14T11:20:01;4.20;;;2.53;;
58372;SDS011;44177;43.356;27.672;2023-05-14T11:22:27;4.90;;;2.90;;
58372;SDS011;44177;43.356;27.672;2023-05-14T11:24:53;3.25;;;2.60;;
58372;SDS011;44177;43.356;27.672;2023-05-14T11:27:19;5.32;;;2.65;;
58372;SDS011;44177;43.356;27.672;2023-05-14T11:29:47;3.60;;;2.80;;
58372;SDS011;44177;43.356;27.672;2023-05-14T11:32:13;8.73;;;2.90;;
58372;SDS011;44177;43.356;27.672;2023-05-14T11:34:41;6.53;;;2.80;;
58372;SDS011;44177;43.356;27.672;2023-05-14T11:37:09;5.03;;;2.72;;
58372;SDS011;44177;43.356;27.672;2023-05-14T11:39:35;6.38;;;2.55;;
58372;SDS011;44177;43.356;27.672;2023-05-14T11:42:08;5.90;;;2.53;;
58372;SDS011;44177;43.356;27.672;2023-05-14T11:44:40;2.55;;;2.30;;
58372;SDS011;44177;43.356;27.672;2023-05-14T11:47:08;5.70;;;3.03;;
58372;SDS011;44177;43.356;27.672;2023-05-14T11:49:35;5.28;;;2.50;;
58372;SDS011;44177;43.356;27.672;2023-05-14T11:52:02;4.38;;;2.83;;
58372;SDS011;44177;43.356;27.672;2023-05-14T11:54:33;4.70;;;2.42;;
58372;SDS011;44177;43.356;27.672;2023-05-14T11:57:01;4.15;;;2.65;;
58372;SDS011;44177;43.356;27.672;2023-05-14T11:59:32;4.30;;;2.60;;
58372;SDS011;44177;43.356;27.672;2023-05-14T12:01:58;10.68;;;2.63;;
58372;SDS011;44177;43.356;27.672;2023-05-14T12:04:23;2.90;;;2.45;;
58372;SDS011;44177;43.356;27.672;2023-05-14T12:06:50;5.07;;;2.28;;
58372;SDS011;44177;43.356;27.672;2023-05-14T12:09:17;3.65;;;2.42;;
58372;SDS011;44177;43.356;27.672;2023-05-14T12:11:43;6.13;;;2.35;;
58372;SDS011;44177;43.356;27.672;2023-05-14T12:14:19;3.92;;;2.25;;
58372;SDS011;44177;43.356;27.672;2023-05-14T12:16:45;10.10;;;2.20;;
58372;SDS011;44177;43.356;27.672;2023-05-14T12:19:15;7.78;;;2.42;;
58372;SDS011;44177;43.356;27.672;2023-05-14T12:21:42;5.53;;;2.65;;
58372;SDS011;44177;43.356;27.672;2023-05-14T12:24:09;4.25;;;2.20;;
58372;SDS011;44177;43.356;27.672;2023-05-14T12:26:36;2.63;;;2.00;;
58372;SDS011;44177;43.356;27.672;2023-05-14T12:29:03;5.03;;;2.17;;
58372;SDS011;44177;43.356;27.672;2023-05-14T12:31:33;3.25;;;2.20;;
58372;SDS011;44177;43.356;27.672;2023-05-14T12:34:01;7.82;;;1.95;;
58372;SDS011;44177;43.356;27.672;2023-05-14T12:36:28;4.53;;;2.40;;
58372;SDS011;44177;43.356;27.672;2023-05-14T12:38:58;3.60;;;2.20;;
58372;SDS011;44177;43.356;27.672;2023-05-14T12:41:31;5.93;;;2.28;;
58372;SDS011;44177;43.356;27.672;2023-05-14T12:43:57;9.73;;;5.95;;
58372;SDS011;44177;43.356;27.672;2023-05-14T12:46:24;3.47;;;2.03;;
58372;SDS011;44177;43.356;27.672;2023-05-14T12:48:50;4.03;;;1.92;;
58372;SDS011;44177;43.356;27.672;2023-05-14T12:51:16;3.97;;;1.98;;
58372;SDS011;44177;43.356;27.672;2023-05-14T12:53:41;7.40;;;2.17;;
58372;SDS011;44177;43.356;27.672;2023-05-14T12:56:07;3.53;;;2.10;;
58372;SDS011;44177;43.356;27.672;2023-05-14T12:58:33;4.65;;;2.03;;
58372;SDS011;44177;43.356;27.672;2023-05-14T13:00:58;4.60;;;2.15;;
58372;SDS011;44177;43.356;27.672;2023-05-14T13:03:24;6.05;;;2.08;;
58372;SDS011;44177;43.356;27.672;2023-05-14T13:05:50;2.20;;;2.00;;
58372;SDS011;44177;43.356;27.672;2023-05-14T13:08:16;4.25;;;2.20;;
58372;SDS011;44177;43.356;27.672;2023-05-14T13:10:45;3.92;;;1.83;;
58372;SDS011;44177;43.356;27.672;2023-05-14T13:13:11;2.85;;;2.05;;
58372;SDS011;44177;43.356;27.672;2023-05-14T13:15:39;3.20;;;2.10;;
58372;SDS011;44177;43.356;27.672;2023-05-14T13:18:04;5.65;;;2.00;;
58372;SDS011;44177;43.356;27.672;2023-05-14T13:20:29;2.15;;;1.80;;
58372;SDS011;44177;43.356;27.672;2023-05-14T13:22:58;6.00;;;2.10;;
58372;SDS011;44177;43.356;27.672;2023-05-14T13:25:23;3.35;;;2.13;;
58372;SDS011;44177;43.356;27.672;2023-05-14T13:27:49;2.90;;;2.00;;
58372;SDS011;44177;43.356;27.672;2023-05-14T13:30:18;3.97;;;1.88;;
58372;SDS011;44177;43.356;27.672;2023-05-14T13:32:44;4.13;;;2.15;;
58372;SDS011;44177;43.356;27.672;2023-05-14T13:35:09;2.83;;;2.10;;
58372;SDS011;44177;43.356;27.672;2023-05-14T13:37:35;4.13;;;1.80;;
58372;SDS011;44177;43.356;27.672;2023-05-14T13:40:01;5.13;;;1.90;;
58372;SDS011;44177;43.356;27.672;2023-05-14T13:42:28;3.10;;;2.00;;
58372;SDS011;44177;43.356;27.672;2023-05-14T13:44:54;4.15;;;1.90;;
58372;SDS011;44177;43.356;27.672;2023-05-14T13:47:20;4.45;;;1.70;;
58372;SDS011;44177;43.356;27.672;2023-05-14T13:49:46;3.20;;;2.15;;
58372;SDS011;44177;43.356;27.672;2023-05-14T13:52:11;2.97;;;1.88;;
58372;SDS011;44177;43.356;27.672;2023-05-14T13:54:37;4.25;;;2.03;;
58372;SDS011;44177;43.356;27.672;2023-05-14T13:57:02;5.43;;;1.90;;
58372;SDS011;44177;43.356;27.672;2023-05-14T13:59:28;3.25;;;1.98;;
58372;SDS011;44177;43.356;27.672;2023-05-14T14:01:53;2.67;;;1.65;;
58372;SDS011;44177;43.356;27.672;2023-05-14T14:04:19;3.65;;;1.60;;
58372;SDS011;44177;43.356;27.672;2023-05-14T14:06:44;2.28;;;1.58;;
58372;SDS011;44177;43.356;27.672;2023-05-14T14:09:10;4.20;;;2.10;;
58372;SDS011;44177;43.356;27.672;2023-05-14T14:11:37;2.80;;;1.80;;
58372;SDS011;44177;43.356;27.672;2023-05-14T14:14:03;4.22;;;1.80;;
58372;SDS011;44177;43.356;27.672;2023-05-14T14:16:28;2.10;;;1.55;;
58372;SDS011;44177;43.356;27.672;2023-05-14T14:18:54;3.80;;;2.20;;
58372;SDS011;44177;43.356;27.672;2023-05-14T14:21:19;3.25;;;1.90;;
58372;SDS011;44177;43.356;27.672;2023-05-14T14:23:45;2.45;;;1.85;;
58372;SDS011;44177;43.356;27.672;2023-05-14T14:26:11;2.28;;;2.00;;
58372;SDS011;44177;43.356;27.672;2023-05-14T14:28:36;3.53;;;2.00;;
58372;SDS011;44177;43.356;27.672;2023-05-14T14:31:02;4.93;;;1.60;;
58372;SDS011;44177;43.356;27.672;2023-05-14T14:33:27;4.03;;;1.67;;
58372;SDS011;44177;43.356;27.672;2023-05-14T14:35:53;3.30;;;1.88;;
58372;SDS011;44177;43.356;27.672;2023-05-14T14:38:18;3.17;;;1.60;;
58372;SDS011;44177;43.356;27.672;2023-05-14T14:40:44;3.30;;;1.70;;
58372;SDS011;44177;43.356;27.672;2023-05-14T14:43:10;2.22;;;1.67;;